Time;durP1;ratioP1;P1;durP2;ratioP2;P2;SDS_P1;SDS_P2;PMS_P1;PMS_P2;Temp;Humidity;BMP_temperature;BMP_pressure;BME280_temperature;BME280_humidity;BME280_pressure;Samples;Min_cycle;Max_cycle;Signal;HPM_P1;HPM_P2
2022/06/15 00:00:14;;;;;;;4.60;2.70;;;;;;;15.70;83.87;96003.09;5034267;28;24420;-75
2022/06/15 00:02:40;;;;;;;4.13;2.97;;;;;;;15.66;84.02;95994.69;5034146;28;24448;-75
2022/06/15 00:05:09;;;;;;;5.50;2.70;;;;;;;15.66;83.56;95992.06;5013826;28;24981;-75
2022/06/15 00:07:35;;;;;;;3.28;2.35;;;;;;;15.57;83.67;95992.75;5014180;28;24424;-75
2022/06/15 00:10:01;;;;;;;4.03;2.90;;;;;;;15.49;83.86;95988.13;5013835;28;24969;-75
2022/06/15 00:12:28;;;;;;;7.63;3.10;;;;;;;15.55;82.23;95988.63;5028046;28;24439;-75
2022/06/15 00:14:55;;;;;;;3.53;2.58;;;;;;;15.29;84.10;95985.44;5033980;28;24420;-75
2022/06/15 00:17:22;;;;;;;3.05;2.40;;;;;;;15.11;84.97;95988.53;5033680;28;24454;-75
2022/06/15 00:19:48;;;;;;;4.40;2.72;;;;;;;15.00;84.54;95997.19;5034018;28;24450;-76
2022/06/15 00:22:16;;;;;;;2.83;2.40;;;;;;;15.01;84.52;95984.97;5033483;28;24435;-76
2022/06/15 00:24:43;;;;;;;2.60;2.37;;;;;;;14.88;84.41;95976.44;5033413;28;24448;-76
2022/06/15 00:27:09;;;;;;;4.57;2.80;;;;;;;15.01;82.68;95964.09;5032751;28;25027;-76
2022/06/15 00:29:37;;;;;;;5.18;3.17;;;;;;;14.92;82.95;95960.44;5033541;28;24439;-76
2022/06/15 00:32:05;;;;;;;4.80;3.40;;;;;;;14.46;91.07;95955.22;5033439;28;24454;-76
2022/06/15 00:34:31;;;;;;;4.28;3.08;;;;;;;14.37;92.23;95956.75;5033186;28;24435;-76
2022/06/15 00:36:58;;;;;;;4.95;3.30;;;;;;;14.44;91.15;95960.56;5032671;28;24428;-76
2022/06/15 00:39:26;;;;;;;5.10;3.67;;;;;;;14.39;89.30;95951.47;5018796;28;24471;-76
2022/06/15 00:41:52;;;;;;;5.45;3.60;;;;;;;14.38;90.67;95955.00;5032907;28;24485;-76
2022/06/15 00:44:32;;;;;;;4.30;3.27;;;;;;;14.41;90.02;95949.56;5033088;28;24443;-76
2022/06/15 00:47:01;;;;;;;5.25;3.58;;;;;;;14.40;88.03;95950.50;5032627;28;24436;-76
2022/06/15 00:49:30;;;;;;;4.82;3.47;;;;;;;14.24;90.88;95949.06;5032683;28;24431;-76
2022/06/15 00:52:00;;;;;;;6.65;3.55;;;;;;;14.28;91.86;95954.88;5032873;28;24436;-76
2022/06/15 00:54:28;;;;;;;4.40;3.28;;;;;;;14.34;92.51;95949.19;5032616;28;24436;-76
2022/06/15 00:56:56;;;;;;;5.15;3.30;;;;;;;14.43;92.10;95951.09;5032383;28;24447;-76
2022/06/15 00:59:25;;;;;;;5.63;3.38;;;;;;;14.45;92.67;95949.19;5032648;28;24474;-76
2022/06/15 01:01:52;;;;;;;5.40;2.90;;;;;;;14.50;92.83;95949.72;5032277;28;24989;-76
2022/06/15 01:04:20;;;;;;;3.45;3.05;;;;;;;14.51;92.44;95945.34;5032128;28;24502;-76
2022/06/15 01:06:52;;;;;;;5.20;2.88;;;;;;;14.50;91.82;95935.88;5031461;28;24478;-75
2022/06/15 01:09:21;;;;;;;3.90;2.80;;;;;;;14.50;91.69;95943.69;5032729;28;24504;-75
2022/06/15 01:12:01;;;;;;;3.75;2.95;;;;;;;14.48;91.35;95943.75;5032406;28;24428;-76
2022/06/15 01:14:48;;;;;;;4.22;3.00;;;;;;;14.48;90.29;95946.38;5032464;28;24960;-75
2022/06/15 01:17:30;;;;;;;3.97;3.03;;;;;;;14.49;90.05;95947.19;5032265;28;24427;-75
2022/06/15 01:20:10;;;;;;;5.38;3.03;;;;;;;14.50;90.20;95944.53;5032639;28;24439;-76
2022/06/15 01:23:14;;;;;;;3.28;2.40;;;;;;;14.47;90.64;95934.28;5032717;28;24517;-75
2022/06/15 01:25:44;;;;;;;3.03;2.47;;;;;;;14.47;90.55;95939.50;5029858;28;24435;-76
2022/06/15 01:28:30;;;;;;;5.65;3.00;;;;;;;14.50;90.84;95938.47;5032549;28;24898;-75
2022/06/15 01:31:02;;;;;;;4.57;3.05;;;;;;;14.53;90.64;95940.81;5032490;28;24431;-75
2022/06/15 01:33:36;;;;;;;4.22;2.75;;;;;;;14.58;90.41;95943.13;5032488;28;24416;-75
2022/06/15 01:36:13;;;;;;;4.13;2.83;;;;;;;14.54;90.27;95944.28;5032130;28;24416;-75
2022/06/15 01:38:48;;;;;;;4.90;2.70;;;;;;;14.46;90.83;95937.84;5032204;28;24439;-76
2022/06/15 01:41:20;;;;;;;5.13;3.20;;;;;;;14.47;90.40;95934.28;5032208;28;24438;-75
2022/06/15 01:43:52;;;;;;;3.70;3.08;;;;;;;14.49;90.62;95940.22;5032323;28;24991;-75
2022/06/15 01:46:20;;;;;;;5.72;3.05;;;;;;;14.49;90.22;95939.38;5031888;28;24427;-75
2022/06/15 01:48:50;;;;;;;4.22;2.97;;;;;;;14.46;89.77;95937.00;5031680;28;24996;-75
2022/06/15 01:51:21;;;;;;;3.43;2.33;;;;;;;14.45;85.07;95935.34;5032161;28;24416;-75
2022/06/15 01:53:52;;;;;;;5.55;2.75;;;;;;;14.38;83.32;95934.13;5032053;28;24435;-75
2022/06/15 01:56:23;;;;;;;5.18;2.80;;;;;;;14.03;85.29;95935.00;5032033;28;24499;-75
2022/06/15 01:58:58;;;;;;;3.10;2.80;;;;;;;13.54;91.74;95936.00;5015926;28;24455;-76
2022/06/15 02:01:36;;;;;;;4.07;2.83;;;;;;;13.67;88.57;95928.09;5031845;28;24432;-76
2022/06/15 02:04:09;;;;;;;4.50;2.80;;;;;;;13.54;90.21;95934.22;5031320;28;24443;-76
2022/06/15 02:06:46;;;;;;;4.03;3.00;;;;;;;13.15;94.60;95930.03;5031319;28;24447;-76
2022/06/15 02:09:20;;;;;;;3.85;3.25;;;;;;;13.14;96.52;95930.97;5031294;28;24432;-76
2022/06/15 02:11:47;;;;;;;4.63;3.30;;;;;;;13.26;96.98;95927.53;5031530;28;24443;-76
2022/06/15 02:14:19;;;;;;;6.82;3.75;;;;;;;13.55;93.18;95932.44;5031313;28;24447;-76
2022/06/15 02:16:53;;;;;;;6.75;3.78;;;;;;;13.54;92.77;95930.78;5030811;28;24973;-76
2022/06/15 02:19:30;;;;;;;7.40;4.18;;;;;;;13.56;90.25;95919.31;5030072;28;25026;-76
2022/06/15 02:21:58;;;;;;;6.10;4.28;;;;;;;13.19;94.21;95913.28;5031074;28;24546;-76
2022/06/15 02:24:26;;;;;;;7.25;4.05;;;;;;;12.95;95.47;95910.63;5031163;28;24428;-76
2022/06/15 02:26:53;;;;;;;4.88;3.50;;;;;;;12.80;99.24;95912.53;5014944;28;24523;-76
2022/06/15 02:29:23;;;;;;;5.05;3.42;;;;;;;12.77;99.31;95910.16;5031092;28;24439;-76
2022/06/15 02:31:51;;;;;;;4.05;3.47;;;;;;;12.78;100.00;95908.38;5030853;28;24439;-76
2022/06/15 02:34:17;;;;;;;6.28;3.30;;;;;;;12.80;100.00;95914.31;5030446;28;24451;-76
2022/06/15 02:36:44;;;;;;;9.73;3.47;;;;;;;12.48;100.00;95914.75;5029833;28;24531;-76
2022/06/15 02:39:12;;;;;;;7.15;3.45;;;;;;;12.24;100.00;95912.03;5030894;28;25017;-75
2022/06/15 02:41:39;;;;;;;5.38;3.42;;;;;;;12.13;100.00;95919.72;5031080;28;24431;-76
2022/06/15 02:44:09;;;;;;;3.22;2.92;;;;;;;12.24;100.00;95919.00;5030528;28;24439;-76
2022/06/15 02:46:41;;;;;;;5.30;3.53;;;;;;;12.32;100.00;95914.94;5030247;28;24505;-75
2022/06/15 02:49:08;;;;;;;3.70;3.30;;;;;;;12.45;100.00;95920.13;5030794;28;24442;-76
2022/06/15 02:51:41;;;;;;;6.10;3.17;;;;;;;12.64;100.00;95921.47;5030829;28;24805;-76
2022/06/15 02:54:11;;;;;;;3.53;2.70;;;;;;;12.75;100.00;95926.78;5030768;28;24470;-76
2022/06/15 02:56:39;;;;;;;7.95;3.33;;;;;;;12.87;100.00;95925.94;5030056;28;25058;-75
2022/06/15 02:59:07;;;;;;;3.65;3.20;;;;;;;12.90;100.00;95927.47;5030332;28;24463;-76
2022/06/15 03:01:36;;;;;;;5.65;3.00;;;;;;;12.89;100.00;95916.25;5030222;28;24436;-76
2022/06/15 03:04:02;;;;;;;5.00;3.88;;;;;;;13.01;100.00;95918.00;5030446;28;24431;-76
2022/06/15 03:06:30;;;;;;;4.88;3.08;;;;;;;12.74;100.00;95914.72;5029683;28;24439;-76
2022/06/15 03:08:57;;;;;;;4.13;3.10;;;;;;;12.65;100.00;95924.00;5029734;28;25071;-76
2022/06/15 03:11:24;;;;;;;3.17;2.67;;;;;;;12.68;100.00;95921.19;5029946;28;24466;-75
2022/06/15 03:13:51;;;;;;;3.92;3.17;;;;;;;12.67;99.01;95916.91;5029669;28;24511;-75
2022/06/15 03:16:17;;;;;;;4.13;2.83;;;;;;;12.46;98.72;95919.22;5029200;28;24968;-75
2022/06/15 03:18:44;;;;;;;3.63;2.70;;;;;;;12.37;97.72;95924.19;5029027;28;24452;-75
2022/06/15 03:21:10;;;;;;;3.60;2.85;;;;;;;12.26;100.00;95911.94;5029915;28;24420;-75
2022/06/15 03:23:38;;;;;;;3.50;3.08;;;;;;;12.25;100.00;95915.47;5030783;28;24424;-75
2022/06/15 03:26:05;;;;;;;3.57;3.10;;;;;;;12.31;100.00;95910.69;5030353;28;24523;-75
2022/06/15 03:28:34;;;;;;;4.63;3.13;;;;;;;12.29;98.79;95909.97;5030279;28;24416;-75
2022/06/15 03:31:00;;;;;;;9.77;2.73;;;;;;;12.17;100.00;95909.97;5033929;28;24439;-75
2022/06/15 03:33:27;;;;;;;2.93;2.57;;;;;;;12.15;100.00;95906.63;5030620;28;24950;-74
2022/06/15 03:35:53;;;;;;;3.63;2.80;;;;;;;12.14;100.00;95908.41;5027518;28;24451;-74
2022/06/15 03:38:20;;;;;;;3.13;2.83;;;;;;;12.22;100.00;95913.91;5034599;28;24456;-75
2022/06/15 03:40:49;;;;;;;4.03;2.92;;;;;;;12.29;100.00;95912.56;5034564;28;24833;-75
2022/06/15 03:43:17;;;;;;;4.03;2.95;;;;;;;12.23;100.00;95910.34;5034216;28;24424;-75
2022/06/15 03:45:44;;;;;;;4.95;2.80;;;;;;;12.25;100.00;95916.28;5035259;28;24436;-76
2022/06/15 03:48:11;;;;;;;3.97;3.28;;;;;;;12.27;100.00;95908.38;5035948;28;24443;-77
2022/06/15 03:50:38;;;;;;;4.17;2.50;;;;;;;12.35;100.00;95913.91;5030617;28;24444;-76
2022/06/15 03:53:06;;;;;;;3.40;2.78;;;;;;;12.43;100.00;95910.81;5032049;28;24432;-77
2022/06/15 03:55:32;;;;;;;3.72;3.00;;;;;;;12.53;100.00;95912.69;5035014;28;24466;-77
2022/06/15 03:58:00;;;;;;;3.20;2.90;;;;;;;12.62;100.00;95907.78;5035612;28;25035;-77
2022/06/15 04:00:29;;;;;;;4.30;3.25;;;;;;;12.66;100.00;95904.03;5035013;28;24838;-77
2022/06/15 04:02:55;;;;;;;4.13;2.83;;;;;;;12.67;100.00;95903.09;5035478;28;24459;-76
2022/06/15 04:05:24;;;;;;;4.03;3.15;;;;;;;12.71;100.00;95904.53;5030084;28;24455;-76
2022/06/15 04:10:36;;;;;;;3.95;2.80;;;;;;;12.79;100.00;95908.28;5035689;28;24455;-77
2022/06/15 04:13:04;;;;;;;4.60;2.97;;;;;;;12.88;100.00;95909.41;5035342;28;24436;-77
2022/06/15 04:15:30;;;;;;;4.10;3.35;;;;;;;12.92;100.00;95913.44;5033532;28;24455;-76
2022/06/15 04:17:57;;;;;;;2.95;2.70;;;;;;;12.97;100.00;95910.53;5033333;28;24436;-76
2022/06/15 04:20:36;;;;;;;6.60;3.55;;;;;;;13.09;99.45;95917.47;5032130;28;24548;-77
2022/06/15 04:23:06;;;;;;;3.88;2.75;;;;;;;13.06;99.08;95920.28;5030239;28;24440;-75
2022/06/15 04:25:35;;;;;;;4.22;3.00;;;;;;;13.04;99.23;95917.78;5029933;28;24511;-75
2022/06/15 04:28:04;;;;;;;4.57;3.30;;;;;;;12.95;100.00;95913.25;5032886;28;24490;-75
2022/06/15 04:30:30;;;;;;;6.53;3.30;;;;;;;13.03;100.00;95917.91;5032709;28;24519;-75
2022/06/15 04:32:57;;;;;;;4.10;3.10;;;;;;;12.90;100.00;95917.09;5031738;28;24530;-75
2022/06/15 04:35:24;;;;;;;4.40;3.17;;;;;;;12.87;100.00;95912.94;5030942;28;24435;-75
2022/06/15 04:37:50;;;;;;;3.70;3.13;;;;;;;12.93;100.00;95916.88;5033188;28;24462;-74
2022/06/15 04:40:17;;;;;;;4.63;3.47;;;;;;;13.14;100.00;95914.53;5021087;28;24510;-74
2022/06/15 04:42:44;;;;;;;5.22;4.18;;;;;;;13.23;100.00;95919.09;5012669;28;24966;-76
2022/06/15 04:45:13;;;;;;;5.22;3.67;;;;;;;13.34;100.00;95920.97;5014153;28;24419;-78
2022/06/15 04:47:40;;;;;;;5.75;3.50;;;;;;;13.49;100.00;95925.06;5014207;28;24786;-77
2022/06/15 04:50:08;;;;;;;4.75;3.30;;;;;;;13.54;99.40;95922.97;5028326;28;24786;-76
2022/06/15 04:52:35;;;;;;;6.10;3.22;;;;;;;13.44;100.00;95919.38;5026100;28;24485;-76
2022/06/15 04:55:03;;;;;;;3.80;3.40;;;;;;;13.59;98.18;95920.84;5030382;28;24443;-71
2022/06/15 04:57:29;;;;;;;3.78;3.20;;;;;;;13.74;98.48;95918.91;5032308;28;24509;-78
2022/06/15 04:59:56;;;;;;;4.45;3.03;;;;;;;13.80;98.03;95911.50;5034297;28;24463;-79
2022/06/15 05:02:23;;;;;;;5.60;3.38;;;;;;;13.88;96.92;95912.72;5033883;28;24439;-78
2022/06/15 05:04:50;;;;;;;4.57;3.28;;;;;;;13.87;97.53;95921.44;5034092;28;24801;-76
2022/06/15 05:07:17;;;;;;;3.60;3.03;;;;;;;13.96;96.82;95915.56;5031352;28;24459;-76
2022/06/15 05:09:47;;;;;;;6.65;3.55;;;;;;;14.01;96.83;95929.06;5031919;28;24538;-77
2022/06/15 05:12:14;;;;;;;5.30;3.40;;;;;;;14.15;95.41;95918.47;5029442;28;24444;-80
2022/06/15 05:14:40;;;;;;;8.93;3.07;;;;;;;14.20;93.75;95921.56;5026142;28;24497;-79
2022/06/15 05:17:07;;;;;;;5.07;3.15;;;;;;;14.31;94.81;95919.91;5024215;28;24529;-79
2022/06/15 05:19:34;;;;;;;5.47;3.15;;;;;;;14.57;93.12;95923.19;5033135;28;24463;-76
2022/06/15 05:22:01;;;;;;;8.05;3.42;;;;;;;14.75;92.52;95922.59;5032180;28;24439;-76
2022/06/15 05:24:27;;;;;;;4.50;3.05;;;;;;;15.15;95.97;95919.50;5035886;28;24458;-77
2022/06/15 05:26:54;;;;;;;6.53;3.40;;;;;;;15.40;97.15;95917.59;5031628;28;24435;-77
2022/06/15 05:29:20;;;;;;;6.00;3.60;;;;;;;15.54;100.00;95922.53;5031514;28;24447;-77
2022/06/15 05:31:46;;;;;;;5.13;4.05;;;;;;;15.70;98.41;95922.16;5033515;28;24448;-78
2022/06/15 05:34:13;;;;;;;5.40;3.60;;;;;;;15.88;96.59;95917.22;5035544;28;24447;-77
2022/06/15 05:36:41;;;;;;;5.93;3.60;;;;;;;15.91;94.53;95916.97;5035326;28;24898;-77
2022/06/15 05:39:07;;;;;;;4.03;2.92;;;;;;;15.99;95.07;95919.78;5032012;28;25000;-78
2022/06/15 05:41:34;;;;;;;10.02;3.38;;;;;;;15.57;86.31;95911.00;5034007;28;24436;-78
2022/06/15 05:44:00;;;;;;;5.35;3.80;;;;;;;15.62;86.37;95914.09;5033416;28;24972;-77
2022/06/15 05:46:30;;;;;;;5.38;3.35;;;;;;;15.57;86.78;95914.44;5031320;28;24463;-77
2022/06/15 05:48:57;;;;;;;4.47;3.13;;;;;;;15.70;84.97;95912.53;5025183;28;25001;-78
2022/06/15 05:51:23;;;;;;;6.03;3.80;;;;;;;15.51;86.17;95920.16;5032183;28;24933;-76
2022/06/15 05:53:51;;;;;;;7.95;3.65;;;;;;;15.83;86.29;95914.97;5031123;28;24991;-76
2022/06/15 05:56:18;;;;;;;21.63;5.15;;;;;;;16.10;84.87;95911.91;5033144;28;24451;-78
2022/06/15 05:58:45;;;;;;;9.70;4.00;;;;;;;16.29;82.83;95905.16;5028576;28;24444;-77
2022/06/15 06:01:18;;;;;;;7.40;3.50;;;;;;;16.36;81.70;95904.50;5029158;28;24803;-76
2022/06/15 06:03:44;;;;;;;7.13;4.18;;;;;;;16.31;82.03;95906.66;5033450;28;24467;-78
2022/06/15 06:06:11;;;;;;;8.10;4.00;;;;;;;16.28;82.66;95909.53;5032319;28;24821;-77
2022/06/15 06:08:37;;;;;;;9.05;3.78;;;;;;;16.34;82.30;95909.00;5032070;28;24586;-78
2022/06/15 06:11:05;;;;;;;5.05;3.78;;;;;;;16.54;81.16;95915.19;5032160;28;25050;-78
2022/06/15 06:13:32;;;;;;;5.72;3.70;;;;;;;16.62;80.74;95912.75;5032236;28;24459;-77
2022/06/15 06:15:58;;;;;;;5.47;3.90;;;;;;;16.65;80.93;95911.69;5030960;28;24439;-77
2022/06/15 06:18:25;;;;;;;5.72;3.17;;;;;;;17.06;80.00;95910.78;5031658;28;24467;-76
2022/06/15 06:20:52;;;;;;;6.63;3.22;;;;;;;17.46;77.25;95912.53;5031143;28;25054;-78
2022/06/15 06:23:19;;;;;;;6.97;3.13;;;;;;;17.87;74.79;95905.41;5031234;28;24474;-77
2022/06/15 06:25:50;;;;;;;5.75;2.95;;;;;;;18.01;71.98;95905.00;5031255;28;24821;-78
2022/06/15 06:28:26;;;;;;;6.47;3.45;;;;;;;18.07;72.05;95899.22;5031488;28;24467;-78
2022/06/15 06:30:53;;;;;;;4.35;3.00;;;;;;;18.24;71.34;95904.72;5031659;28;24427;-77
2022/06/15 06:33:19;;;;;;;6.40;3.25;;;;;;;18.36;71.04;95907.06;5032018;28;24419;-78
2022/06/15 06:35:46;;;;;;;11.83;3.50;;;;;;;18.38;72.04;95904.28;5029836;28;24511;-78
2022/06/15 06:38:14;;;;;;;4.80;3.10;;;;;;;18.52;69.31;95906.47;5029892;28;24424;-77
2022/06/15 06:40:41;;;;;;;5.95;3.28;;;;;;;18.82;69.26;95905.44;5021684;28;24575;-78
2022/06/15 06:43:07;;;;;;;6.10;3.10;;;;;;;19.08;68.70;95908.22;5010321;28;24861;-78
2022/06/15 06:45:35;;;;;;;23.60;3.83;;;;;;;19.32;69.13;95910.34;5010144;28;24425;-78
2022/06/15 06:48:02;;;;;;;8.40;3.47;;;;;;;19.33;68.47;95914.59;5010692;28;24431;-78
2022/06/15 06:50:28;;;;;;;7.30;3.83;;;;;;;19.43;69.57;95916.34;5010657;28;24428;-78
2022/06/15 06:52:55;;;;;;;9.45;4.10;;;;;;;19.59;69.08;95919.16;5011401;28;24436;-78
2022/06/15 06:55:24;;;;;;;7.80;3.60;;;;;;;19.73;68.18;95918.69;5019366;28;24447;-77
2022/06/15 06:57:54;;;;;;;9.18;3.60;;;;;;;19.92;66.49;95917.72;5031042;28;24475;-77
2022/06/15 07:00:21;;;;;;;36.60;6.82;;;;;;;19.85;65.45;95918.47;5030999;28;24861;-78
2022/06/15 07:02:49;;;;;;;12.43;4.50;;;;;;;20.26;65.68;95912.56;5031150;28;24432;-77
2022/06/15 07:05:16;;;;;;;25.73;4.95;;;;;;;20.54;63.27;95912.47;5030031;28;24423;-77
2022/06/15 07:07:42;;;;;;;12.90;3.63;;;;;;;20.72;63.93;95917.69;5031058;28;24964;-78
2022/06/15 07:10:10;;;;;;;6.53;3.30;;;;;;;21.01;58.89;95917.34;5030762;28;24435;-79
2022/06/15 07:12:38;;;;;;;9.25;3.30;;;;;;;21.08;58.46;95918.38;5030868;28;24435;-77
2022/06/15 07:15:05;;;;;;;6.57;2.88;;;;;;;21.37;56.64;95918.03;5030627;28;24444;-77
2022/06/15 07:17:32;;;;;;;3.83;2.45;;;;;;;21.74;54.66;95915.00;5030901;28;24424;-77
2022/06/15 07:20:00;;;;;;;5.95;3.25;;;;;;;21.61;54.41;95914.63;5030734;28;24455;-77
2022/06/15 07:22:26;;;;;;;7.30;2.80;;;;;;;21.94;55.05;95910.25;5030380;28;24458;-77
2022/06/15 07:24:53;;;;;;;5.78;2.78;;;;;;;22.10;53.42;95912.09;5014130;28;24447;-77
2022/06/15 07:27:20;;;;;;;14.60;4.17;;;;;;;22.30;52.76;95917.06;5010250;28;24431;-75
2022/06/15 07:29:47;;;;;;;12.57;4.35;;;;;;;22.43;52.33;95917.38;5026244;28;25055;-73
2022/06/15 07:32:13;;;;;;;8.80;2.97;;;;;;;22.42;52.81;95919.19;5030780;28;24431;-73
2022/06/15 07:34:41;;;;;;;6.32;2.83;;;;;;;22.71;52.13;95916.03;5030110;28;24506;-76
2022/06/15 07:37:10;;;;;;;9.07;2.50;;;;;;;23.13;52.61;95927.34;5030309;28;24517;-75
2022/06/15 07:39:38;;;;;;;6.43;3.13;;;;;;;23.03;51.82;95927.56;5030155;28;25005;-75
2022/06/15 07:42:06;;;;;;;6.80;3.13;;;;;;;22.54;52.03;95927.59;5029772;28;24482;-76
2022/06/15 07:44:34;;;;;;;6.00;2.55;;;;;;;22.52;51.54;95916.41;5030025;28;24442;-76
2022/06/15 07:49:55;;;;;;;3.07;2.20;;;;;;;22.71;50.31;95921.31;5029159;28;24530;-80
2022/06/15 07:52:26;;;;;;;6.60;2.35;;;;;;;22.82;50.54;95929.88;5020548;28;24489;-77
2022/06/15 07:54:52;;;;;;;7.55;2.67;;;;;;;23.07;49.38;95920.94;5029684;28;24477;-77
2022/06/15 07:57:19;;;;;;;5.20;2.60;;;;;;;22.79;49.38;95927.59;5029213;28;24435;-76
2022/06/15 07:59:46;;;;;;;7.67;2.73;;;;;;;23.45;49.75;95934.34;5029387;28;24459;-76
2022/06/15 08:02:13;;;;;;;5.63;2.58;;;;;;;23.57;46.11;95937.41;5029428;28;24447;-77
2022/06/15 08:04:40;;;;;;;3.45;2.05;;;;;;;23.65;44.67;95937.38;5029050;28;24834;-76
2022/06/15 08:07:08;;;;;;;5.28;2.30;;;;;;;24.09;49.05;95934.16;5029419;28;24440;-74
2022/06/15 08:09:36;;;;;;;6.70;2.40;;;;;;;24.23;44.26;95936.06;5029471;28;24442;-75
2022/06/15 08:12:16;;;;;;;4.20;2.17;;;;;;;23.86;43.66;95932.34;5029657;28;24471;-75
2022/06/15 08:14:45;;;;;;;6.33;2.17;;;;;;;23.74;43.83;95925.81;5013676;28;24497;-76
2022/06/15 08:17:15;;;;;;;4.05;2.40;;;;;;;24.04;45.66;95932.06;5031342;28;24836;-75
2022/06/15 08:19:45;;;;;;;5.72;2.50;;;;;;;24.78;44.95;95926.19;5033305;28;25007;-76
2022/06/15 08:22:13;;;;;;;3.70;2.23;;;;;;;25.22;43.30;95926.25;5034990;28;24446;-76
2022/06/15 08:24:42;;;;;;;2.75;1.90;;;;;;;24.91;41.92;95922.91;5033523;28;24435;-76
2022/06/15 08:27:10;;;;;;;7.63;2.25;;;;;;;25.13;42.44;95922.03;5033765;28;24436;-76
2022/06/15 08:29:37;;;;;;;5.55;2.78;;;;;;;25.35;42.83;95929.06;5033453;28;24436;-75
2022/06/15 08:32:05;;;;;;;4.15;1.98;;;;;;;25.88;44.82;95925.41;5034755;28;24443;-77
2022/06/15 08:34:33;;;;;;;3.20;2.15;;;;;;;26.30;44.31;95921.97;5035532;28;24427;-78
2022/06/15 08:36:59;;;;;;;3.17;2.28;;;;;;;26.65;40.60;95914.13;5034930;28;24493;-76
2022/06/15 08:39:26;;;;;;;2.70;1.95;;;;;;;27.08;42.42;95919.31;5034286;28;24490;-77
2022/06/15 08:42:02;;;;;;;6.22;2.25;;;;;;;27.16;41.54;95914.69;5030784;28;24448;-78
2022/06/15 08:44:36;;;;;;;4.55;2.40;;;;;;;27.30;43.63;95914.78;5032814;28;24439;-75
2022/06/15 08:47:11;;;;;;;5.13;2.35;;;;;;;27.34;44.01;95918.69;5032789;28;24439;-77
2022/06/15 08:49:46;;;;;;;5.95;2.45;;;;;;;27.39;39.82;95916.22;5033717;28;24490;-75
2022/06/15 08:52:16;;;;;;;3.85;2.13;;;;;;;27.29;41.39;95916.59;5033203;28;24450;-75
2022/06/15 08:54:52;;;;;;;5.60;2.40;;;;;;;27.37;42.85;95923.59;5032420;28;24856;-77
2022/06/15 08:57:25;;;;;;;11.40;2.70;;;;;;;27.25;42.92;95924.16;5034042;28;24482;-76
2022/06/15 08:59:58;;;;;;;4.35;2.28;;;;;;;27.43;42.12;95923.59;5033713;28;24577;-77
2022/06/15 09:02:32;;;;;;;3.25;2.13;;;;;;;27.58;39.83;95928.78;5030608;28;24790;-77
2022/06/15 09:05:09;;;;;;;4.10;2.30;;;;;;;28.07;43.72;95926.94;5026740;28;24447;-75
2022/06/15 09:07:58;;;;;;;4.82;2.20;;;;;;;28.23;42.31;95919.38;5035471;28;24474;-77
2022/06/15 09:10:45;;;;;;;2.53;2.03;;;;;;;28.23;37.25;95927.38;5019727;28;24476;-77
2022/06/15 09:13:29;;;;;;;2.63;2.00;;;;;;;27.86;39.49;95927.91;5033867;28;24439;-75
2022/06/15 09:16:06;;;;;;;4.93;2.17;;;;;;;27.19;36.42;95921.47;5032068;28;24527;-75
2022/06/15 09:18:39;;;;;;;5.73;2.13;;;;;;;26.92;36.08;95933.72;5025786;28;24432;-74
2022/06/15 09:21:10;;;;;;;3.33;1.87;;;;;;;26.93;37.74;95936.19;5032042;28;24452;-75
2022/06/15 09:23:43;;;;;;;6.60;2.05;;;;;;;27.00;36.50;95923.78;5031737;28;24837;-75
2022/06/15 09:26:18;;;;;;;7.68;2.08;;;;;;;27.48;38.45;95923.03;5032035;28;24814;-74
2022/06/15 09:28:51;;;;;;;4.38;1.95;;;;;;;27.74;35.58;95936.47;5031185;28;24436;-75
2022/06/15 09:31:24;;;;;;;3.67;1.87;;;;;;;27.11;37.27;95930.41;5032005;28;24442;-76
2022/06/15 09:33:55;;;;;;;4.38;2.00;;;;;;;27.73;38.63;95926.81;5016935;28;24806;-74
2022/06/15 09:36:28;;;;;;;4.55;2.10;;;;;;;27.96;38.85;95929.19;5031107;28;24466;-75
2022/06/15 09:38:54;;;;;;;2.60;1.80;;;;;;;28.20;37.14;95926.97;5031583;28;24807;-75
2022/06/15 09:41:26;;;;;;;5.03;1.90;;;;;;;28.01;35.05;95927.75;5018145;28;24547;-75
2022/06/15 09:44:08;;;;;;;2.95;1.88;;;;;;;27.76;32.91;95927.47;5012367;28;24424;-75
2022/06/15 09:46:44;;;;;;;2.70;1.83;;;;;;;28.47;34.24;95925.16;5011757;28;24424;-76
2022/06/15 09:49:24;;;;;;;2.92;1.85;;;;;;;28.45;35.65;95925.38;5011914;28;24436;-75
2022/06/15 09:52:00;;;;;;;5.38;1.83;;;;;;;28.52;34.13;95930.72;5011827;28;24435;-76
2022/06/15 09:54:37;;;;;;;4.28;1.77;;;;;;;28.57;34.53;95928.25;5012108;28;24475;-75
2022/06/15 09:57:04;;;;;;;3.83;1.60;;;;;;;28.72;35.76;95925.38;5011702;28;24420;-75
2022/06/15 09:59:33;;;;;;;2.80;1.80;;;;;;;29.02;32.93;95922.31;5011767;28;24425;-75
2022/06/15 10:02:03;;;;;;;3.55;1.70;;;;;;;29.13;33.39;95927.00;5011629;28;24444;-75
2022/06/15 10:04:32;;;;;;;2.67;1.70;;;;;;;28.77;32.79;95925.56;5011894;28;24439;-74
2022/06/15 10:07:03;;;;;;;1.80;1.55;;;;;;;29.00;33.82;95927.84;5011695;28;24424;-75
2022/06/15 10:09:32;;;;;;;1.75;1.50;;;;;;;29.25;36.88;95933.31;5011951;28;24491;-75
2022/06/15 10:12:56;;;;;;;3.67;1.70;;;;;;;28.86;33.13;95924.34;5011265;28;24427;-76
2022/06/15 10:14:52;;;;;;;9.65;1.90;;;;;;;28.40;32.71;95933.16;5011279;28;24826;-75
2022/06/15 10:17:24;;;;;;;5.95;2.10;;;;;;;28.96;33.12;95931.94;5011510;28;24439;-75
2022/06/15 10:19:53;;;;;;;2.95;1.88;;;;;;;28.37;32.06;95932.72;5011548;28;24428;-75
2022/06/15 10:22:25;;;;;;;3.22;1.88;;;;;;;28.82;33.06;95933.78;5011647;28;24484;-78
2022/06/15 10:24:52;;;;;;;6.28;2.00;;;;;;;28.85;32.59;95930.72;5015264;28;24786;-78
2022/06/15 10:27:28;;;;;;;3.55;2.13;;;;;;;29.12;33.45;95931.53;5014867;28;24988;-77
2022/06/15 10:30:03;;;;;;;2.47;1.80;;;;;;;29.30;34.86;95935.38;5015825;28;24421;-78
2022/06/15 10:32:31;;;;;;;3.10;1.98;;;;;;;29.27;33.37;95933.13;5015482;28;24431;-78
2022/06/15 10:35:08;;;;;;;4.00;2.03;;;;;;;29.23;33.51;95927.41;5015455;28;24444;-78
2022/06/15 10:37:36;;;;;;;3.83;2.15;;;;;;;29.38;35.70;95937.81;5015376;28;24424;-77
2022/06/15 10:40:07;;;;;;;5.47;1.90;;;;;;;29.30;35.82;95930.88;5014861;28;24455;-78
2022/06/15 10:42:36;;;;;;;8.70;2.13;;;;;;;28.98;34.87;95921.91;5015347;28;24439;-78
2022/06/15 10:45:08;;;;;;;5.63;2.17;;;;;;;29.45;35.83;95925.28;5015266;28;24423;-77
2022/06/15 10:47:41;;;;;;;25.08;6.50;;;;;;;29.25;34.41;95927.19;5015107;28;24569;-78
2022/06/15 10:50:18;;;;;;;3.58;2.03;;;;;;;29.27;34.87;95925.13;5014928;28;24515;-77
2022/06/15 10:52:50;;;;;;;9.68;2.20;;;;;;;29.36;36.69;95926.53;5014935;28;24424;-77
2022/06/15 11:04:07;;;;;;;11.30;3.67;;;;;;;29.25;35.56;95906.66;5012496;28;25034;-78
2022/06/15 11:06:39;;;;;;;7.45;2.85;;;;;;;29.07;34.83;95911.81;5014317;28;24471;-78
2022/06/15 11:09:16;;;;;;;3.88;2.03;;;;;;;28.78;38.44;95902.44;5014979;28;24424;-77
2022/06/15 11:11:42;;;;;;;5.60;2.30;;;;;;;28.83;35.67;95908.75;5015146;28;24408;-78
2022/06/15 11:14:18;;;;;;;3.58;1.80;;;;;;;29.05;38.83;95904.03;5014751;28;24424;-78
2022/06/15 11:19:32;;;;;;;7.20;2.35;;;;;;;28.67;35.55;95898.53;5015500;28;24977;-77
2022/06/15 11:22:05;;;;;;;3.78;2.30;;;;;;;28.59;35.60;95898.72;5014423;28;24447;-77
2022/06/15 11:24:39;;;;;;;4.97;2.30;;;;;;;28.61;35.81;95899.34;5014146;28;24424;-76
2022/06/15 11:27:11;;;;;;;4.72;2.40;;;;;;;28.62;37.89;95896.47;5014508;28;24451;-78
2022/06/15 11:29:48;;;;;;;5.00;2.00;;;;;;;28.73;36.90;95891.56;5014389;28;24420;-77
2022/06/15 11:32:30;;;;;;;7.53;2.40;;;;;;;28.61;36.23;95894.03;5017123;28;24870;-77
2022/06/15 11:35:05;;;;;;;4.80;2.33;;;;;;;28.66;37.92;95897.72;5016468;28;24954;-77
2022/06/15 11:37:44;;;;;;;4.18;2.33;;;;;;;28.52;39.51;95900.59;5015921;28;24783;-77
2022/06/15 11:40:17;;;;;;;2.88;2.20;;;;;;;28.31;35.49;95898.91;5016547;28;24460;-77
2022/06/15 11:42:45;;;;;;;2.92;2.03;;;;;;;28.26;36.72;95896.06;5016476;28;25041;-77
2022/06/15 11:45:14;;;;;;;5.60;2.43;;;;;;;28.43;38.03;95898.13;5016569;28;24520;-77
2022/06/15 11:47:57;;;;;;;4.97;2.22;;;;;;;28.42;38.18;95893.00;5016523;28;24423;-77
2022/06/15 11:50:32;;;;;;;12.52;2.53;;;;;;;28.35;37.71;95892.97;5010784;28;24428;-75
2022/06/15 11:53:06;;;;;;;5.18;2.25;;;;;;;28.38;38.41;95894.44;5014392;28;24430;-75
2022/06/15 11:55:39;;;;;;;8.73;2.78;;;;;;;28.42;38.19;95891.16;5013920;28;24444;-74
2022/06/15 11:58:27;;;;;;;4.82;2.10;;;;;;;28.54;38.96;95899.34;5014496;28;24454;-75
2022/06/15 12:01:07;;;;;;;4.13;2.08;;;;;;;28.51;40.08;95898.94;5013697;28;24428;-75